createdAt,value
2018-11-12T00:00:02.498Z,7.75
2018-11-12T00:01:02.541Z,7.77
2018-11-12T00:02:02.589Z,7.74
2018-11-12T00:03:02.649Z,7.58
2018-11-12T00:04:02.684Z,7.66
2018-11-12T00:05:02.726Z,7.62
2018-11-12T00:06:02.767Z,7.42
2018-11-12T00:07:02.826Z,7.44
2018-11-12T00:08:02.870Z,7.45
2018-11-12T00:09:02.903Z,7.49
2018-11-12T00:10:02.943Z,7.49
2018-11-12T00:11:02.986Z,7.35
2018-11-12T00:12:03.049Z,7.40
2018-11-12T00:13:03.078Z,7.38
2018-11-12T00:14:03.118Z,7.44
2018-11-12T00:15:03.167Z,7.29
2018-11-12T00:16:03.204Z,7.38
2018-11-12T00:17:03.273Z,7.42
2018-11-12T00:18:03.296Z,7.35
2018-11-12T00:19:03.338Z,7.32
2018-11-12T00:20:03.387Z,7.32
2018-11-12T00:21:03.429Z,7.32
2018-11-12T00:22:03.581Z,7.23
2018-11-12T00:23:03.522Z,7.23
2018-11-12T00:24:03.561Z,7.24
2018-11-12T00:25:03.609Z,7.26
2018-11-12T00:26:03.654Z,7.20
2018-11-12T00:27:03.717Z,7.20
2018-11-12T00:28:03.740Z,7.24
2018-11-12T00:29:03.840Z,7.20
2018-11-12T00:30:03.828Z,7.16
2018-11-12T00:31:03.933Z,7.31
2018-11-12T00:32:03.915Z,7.17
2018-11-12T00:33:03.958Z,7.17
2018-11-12T00:34:04.003Z,7.17
2018-11-12T00:35:04.059Z,7.15
2018-11-12T00:36:04.248Z,7.09
2018-11-12T00:37:04.161Z,7.15
2018-11-12T00:38:04.203Z,7.12
2018-11-12T00:39:04.224Z,7.13
2018-11-12T00:40:04.285Z,7.01
2018-11-12T00:41:04.313Z,6.99
2018-11-12T00:42:04.360Z,7.07
2018-11-12T00:43:04.423Z,6.95
2018-11-12T00:44:04.445Z,6.95
2018-11-12T00:45:04.489Z,6.90
2018-11-12T00:46:05.356Z,6.89
2018-11-12T00:47:04.596Z,6.89
2018-11-12T00:48:04.623Z,6.90
2018-11-12T00:49:04.669Z,6.77
2018-11-12T00:50:04.714Z,6.94
2018-11-12T00:51:04.776Z,6.84
2018-11-12T00:52:04.805Z,6.83
2018-11-12T00:53:04.843Z,6.79
2018-11-12T00:54:04.890Z,6.86
2018-11-12T00:55:04.968Z,6.79
2018-11-12T00:56:04.974Z,6.77
2018-11-12T00:57:05.018Z,6.71
2018-11-12T00:58:05.094Z,6.77
2018-11-12T00:59:05.107Z,6.72
2018-11-12T01:00:05.150Z,6.68
2018-11-12T01:01:05.216Z,6.66
2018-11-12T01:02:05.240Z,6.72
2018-11-12T01:03:05.292Z,6.66
2018-11-12T01:04:05.370Z,6.73
2018-11-12T01:05:05.370Z,6.71
2018-11-12T01:06:05.438Z,6.76
2018-11-12T01:07:05.488Z,6.71
2018-11-12T01:08:05.512Z,6.73
2018-11-12T01:09:05.549Z,6.71
2018-11-12T01:10:05.612Z,6.76
2018-11-12T01:11:05.634Z,6.73
2018-11-12T01:12:05.681Z,6.68
2018-11-12T01:13:05.726Z,6.69
2018-11-12T01:14:05.768Z,6.66
2018-11-12T01:15:05.831Z,6.59
2018-11-12T01:16:05.879Z,6.65
2018-11-12T01:17:05.898Z,6.65
2018-11-12T01:18:05.942Z,6.61
2018-11-12T01:19:05.988Z,6.66
2018-11-12T01:20:06.057Z,6.65
2018-11-12T01:21:06.087Z,6.62
2018-11-12T01:22:06.119Z,6.66
2018-11-12T01:23:06.159Z,6.65
2018-11-12T01:24:06.238Z,6.66
2018-11-12T01:25:06.256Z,6.65
2018-11-12T01:26:06.308Z,6.63
2018-11-12T01:27:06.360Z,6.62
2018-11-12T01:28:06.382Z,6.63
2018-11-12T01:29:06.461Z,6.65
2018-11-12T01:30:06.467Z,6.65
2018-11-12T01:31:06.583Z,6.62
2018-11-12T01:32:06.572Z,6.63
2018-11-12T01:33:06.601Z,6.62
2018-11-12T01:34:06.673Z,6.69
2018-11-12T01:35:06.686Z,6.68
2018-11-12T01:36:06.755Z,6.69
2018-11-12T01:37:06.782Z,6.65
2018-11-12T01:38:06.906Z,6.53
2018-11-12T01:39:06.864Z,6.65
2018-11-12T01:40:06.929Z,6.63
2018-11-12T01:41:06.974Z,6.59
2018-11-12T01:42:07.010Z,6.48
2018-11-12T01:43:07.059Z,6.48
2018-11-12T01:44:07.104Z,6.48
2018-11-12T01:45:07.142Z,6.50
2018-11-12T01:46:07.176Z,6.50
2018-11-12T01:47:07.219Z,6.51
2018-11-12T01:48:07.289Z,6.54
2018-11-12T01:49:07.298Z,6.51
2018-11-12T01:50:08.160Z,6.59
2018-11-12T01:51:07.406Z,6.47
2018-11-12T01:52:07.432Z,6.51
2018-11-12T01:53:07.474Z,6.44
2018-11-12T01:54:07.519Z,6.47
2018-11-12T01:55:07.561Z,6.40
2018-11-12T01:56:07.626Z,6.36
2018-11-12T01:57:07.646Z,6.41
2018-11-12T01:58:07.692Z,6.41
2018-11-12T01:59:07.736Z,6.41
2018-11-12T02:00:07.779Z,6.41
2018-11-12T02:01:07.848Z,6.36
2018-11-12T02:02:07.882Z,6.36
2018-11-12T02:03:07.912Z,6.32
2018-11-12T02:04:07.965Z,6.32
2018-11-12T02:05:08.003Z,6.30
2018-11-12T02:06:08.059Z,6.35
2018-11-12T02:07:08.083Z,6.35
2018-11-12T02:08:08.293Z,6.35
2018-11-12T02:09:08.235Z,6.41
2018-11-12T02:10:08.234Z,6.25
2018-11-12T02:11:08.258Z,6.26
2018-11-12T02:12:08.302Z,6.14
2018-11-12T02:13:08.369Z,6.01
2018-11-12T02:14:08.408Z,6.07
2018-11-12T02:15:08.443Z,6.00
2018-11-12T02:16:08.473Z,6.13
2018-11-12T02:17:08.518Z,6.10
2018-11-12T02:18:08.563Z,6.06
2018-11-12T02:19:08.628Z,6.09
2018-11-12T02:20:08.652Z,6.07
2018-11-12T02:21:08.694Z,6.06
2018-11-12T02:22:08.740Z,6.09
2018-11-12T02:23:08.782Z,6.07
2018-11-12T02:24:08.843Z,6.04
2018-11-12T02:25:08.875Z,6.09
2018-11-12T02:26:08.916Z,5.96
2018-11-12T02:27:08.955Z,6.04
2018-11-12T02:28:08.997Z,6.04
2018-11-12T02:29:09.089Z,5.96
2018-11-12T02:30:09.083Z,6.03
2018-11-12T02:31:09.134Z,5.92
2018-11-12T02:32:09.175Z,5.95
2018-11-12T02:33:09.244Z,5.95
2018-11-12T02:34:09.280Z,5.91
2018-11-12T02:35:09.337Z,5.91
2018-11-12T02:36:09.345Z,5.96
2018-11-12T02:37:09.393Z,5.89
2018-11-12T02:38:09.439Z,5.91
2018-11-12T02:39:09.479Z,5.92
2018-11-12T02:40:09.589Z,5.92
2018-11-12T02:41:09.568Z,6.04
2018-11-12T02:42:09.605Z,6.11
2018-11-12T02:43:09.647Z,6.22
2018-11-12T02:44:09.698Z,6.25
2018-11-12T02:45:09.753Z,6.29
2018-11-12T02:46:09.799Z,6.40
2018-11-12T02:47:09.903Z,6.33
2018-11-12T02:48:09.865Z,6.35
2018-11-12T02:49:09.912Z,6.35
2018-11-12T02:50:09.958Z,6.44
2018-11-12T02:51:10.032Z,6.46
2018-11-12T02:52:10.041Z,6.51
2018-11-12T02:53:10.080Z,6.62
2018-11-12T02:54:10.245Z,6.65
2018-11-12T02:55:10.169Z,6.71
2018-11-12T02:56:10.237Z,6.80
2018-11-12T02:57:10.263Z,6.86
2018-11-12T02:58:10.298Z,6.95
2018-11-12T02:59:10.343Z,6.89
2018-11-12T03:00:10.387Z,6.94
2018-11-12T03:01:10.456Z,6.94
2018-11-12T03:02:10.475Z,7.01
2018-11-12T03:03:10.517Z,7.04
2018-11-12T03:04:10.570Z,7.08
2018-11-12T03:05:10.607Z,7.16
2018-11-12T03:06:10.672Z,7.15
2018-11-12T03:07:10.721Z,7.16
2018-11-12T03:08:10.738Z,7.09
2018-11-12T03:09:10.780Z,7.13
2018-11-12T03:10:10.826Z,7.13
2018-11-12T03:11:10.871Z,7.16
2018-11-12T03:12:10.933Z,7.19
2018-11-12T03:13:10.958Z,7.17
2018-11-12T03:14:11.000Z,7.19
2018-11-12T03:15:11.049Z,7.31
2018-11-12T03:16:11.097Z,7.16
2018-11-12T03:17:11.186Z,7.19
2018-11-12T03:18:11.201Z,7.13
2018-11-12T03:19:11.235Z,7.20
2018-11-12T03:20:11.267Z,7.20
2018-11-12T03:21:11.320Z,7.23
2018-11-12T03:22:11.378Z,7.31
2018-11-12T03:23:11.420Z,7.29
2018-11-12T03:24:11.442Z,7.29
2018-11-12T03:25:11.491Z,7.47
2018-11-12T03:26:11.531Z,7.47
2018-11-12T03:27:11.576Z,7.49
2018-11-12T03:28:11.644Z,7.52
2018-11-12T03:29:11.678Z,7.47
2018-11-12T03:30:11.707Z,7.45
2018-11-12T03:31:11.764Z,7.47
2018-11-12T03:32:11.797Z,7.47
2018-11-12T03:33:11.861Z,7.58
2018-11-12T03:34:11.885Z,7.60
2018-11-12T03:35:11.931Z,7.60
2018-11-12T03:36:11.970Z,7.60
2018-11-12T03:37:12.018Z,7.63
2018-11-12T03:38:12.090Z,7.72
2018-11-12T03:39:12.131Z,7.77
2018-11-12T03:40:12.149Z,7.75
2018-11-12T03:41:12.197Z,7.74
2018-11-12T03:42:12.249Z,7.77
2018-11-12T03:43:12.289Z,7.59
2018-11-12T03:44:12.356Z,7.77
2018-11-12T03:45:12.381Z,7.75
2018-11-12T03:46:12.422Z,7.78
2018-11-12T03:47:12.465Z,7.63
2018-11-12T03:48:12.507Z,7.69
2018-11-12T03:49:12.614Z,7.84
2018-11-12T03:50:12.596Z,7.77
2018-11-12T03:51:12.641Z,7.79
2018-11-12T03:52:12.694Z,7.85
2018-11-12T03:53:12.731Z,7.84
2018-11-12T03:54:12.797Z,7.78
2018-11-12T03:55:12.821Z,7.89
2018-11-12T03:56:12.874Z,7.81
2018-11-12T03:57:12.911Z,7.89
2018-11-12T03:58:12.954Z,7.82
2018-11-12T03:59:13.014Z,7.85
2018-11-12T04:00:13.146Z,7.85
2018-11-12T04:01:13.089Z,7.90
2018-11-12T04:02:13.133Z,7.89
2018-11-12T04:03:13.179Z,7.93
2018-11-12T04:04:13.226Z,7.87
2018-11-12T04:05:13.288Z,7.92
2018-11-12T04:06:13.313Z,7.96
2018-11-12T04:07:13.356Z,7.96
2018-11-12T04:08:13.404Z,7.93
2018-11-12T04:09:13.443Z,7.94
2018-11-12T04:10:13.594Z,7.96
2018-11-12T04:11:13.546Z,8.07
2018-11-12T04:12:13.590Z,8.02
2018-11-12T04:13:13.652Z,7.92
2018-11-12T04:14:13.671Z,7.97
2018-11-12T04:15:13.713Z,7.96
2018-11-12T04:16:13.765Z,7.99
2018-11-12T04:17:13.805Z,7.97
2018-11-12T04:18:13.876Z,7.92
2018-11-12T04:19:13.897Z,7.97
2018-11-12T04:20:13.937Z,7.97
2018-11-12T04:21:14.008Z,7.92
2018-11-12T04:22:14.029Z,7.94
2018-11-12T04:23:14.072Z,7.94
2018-11-12T04:24:14.122Z,8.07
2018-11-12T04:25:14.160Z,8.08
2018-11-12T04:26:14.281Z,8.08
2018-11-12T04:27:14.248Z,8.08
2018-11-12T04:28:14.297Z,8.00
2018-11-12T04:29:14.339Z,8.10
2018-11-12T04:30:14.389Z,8.07
2018-11-12T04:31:14.470Z,8.15
2018-11-12T04:32:14.486Z,8.17
2018-11-12T04:33:14.605Z,8.14
2018-11-12T04:34:14.565Z,8.08
2018-11-12T04:35:14.605Z,8.15
2018-11-12T04:36:14.672Z,8.25
2018-11-12T04:37:14.727Z,8.14
2018-11-12T04:38:14.741Z,8.26
2018-11-12T04:39:14.791Z,8.11
2018-11-12T04:40:14.936Z,8.28
2018-11-12T04:41:14.881Z,8.29
2018-11-12T04:42:14.945Z,8.22
2018-11-12T04:43:15.015Z,8.28
2018-11-12T04:44:15.013Z,8.25
2018-11-12T04:45:15.060Z,8.20
2018-11-12T04:46:15.101Z,8.25
2018-11-12T04:47:15.146Z,8.20
2018-11-12T04:48:15.213Z,8.25
2018-11-12T04:49:15.236Z,8.20
2018-11-12T04:50:15.288Z,8.28
2018-11-12T04:51:15.326Z,8.12
2018-11-12T04:52:15.373Z,8.26
2018-11-12T04:53:15.436Z,8.22
2018-11-12T04:54:15.463Z,8.21
2018-11-12T04:55:15.800Z,8.29
2018-11-12T04:56:15.570Z,8.29
2018-11-12T04:57:15.598Z,8.21
2018-11-12T04:58:15.649Z,8.28
2018-11-12T04:59:15.774Z,8.22
2018-11-12T05:00:15.740Z,8.21
2018-11-12T05:01:15.784Z,8.18
2018-11-12T05:02:15.824Z,8.22
2018-11-12T05:03:15.880Z,8.32
2018-11-12T05:04:15.936Z,8.25
2018-11-12T05:05:15.958Z,8.25
2018-11-12T05:06:16.002Z,8.20
2018-11-12T05:07:16.080Z,8.20
2018-11-12T05:08:16.098Z,8.30
2018-11-12T05:09:16.162Z,8.22
2018-11-12T05:10:16.197Z,8.28
2018-11-12T05:11:16.227Z,8.28
2018-11-12T05:12:16.285Z,8.28
2018-11-12T05:13:16.316Z,8.22
2018-11-12T05:14:16.392Z,8.28
2018-11-12T05:15:16.433Z,8.26
2018-11-12T05:16:16.451Z,8.17
2018-11-12T05:17:16.496Z,8.22
2018-11-12T05:18:16.546Z,8.21
2018-11-12T05:19:16.648Z,8.26
2018-11-12T05:20:16.633Z,8.25
2018-11-12T05:21:16.694Z,8.21
2018-11-12T05:22:16.726Z,8.22
2018-11-12T05:23:16.767Z,8.25
2018-11-12T05:24:16.813Z,8.25
2018-11-12T05:25:16.859Z,8.15
2018-11-12T05:26:16.925Z,8.21
2018-11-12T05:27:16.977Z,8.22
2018-11-12T05:28:17.007Z,8.28
2018-11-12T05:29:17.041Z,8.29
2018-11-12T05:30:17.085Z,8.15
2018-11-12T05:31:17.147Z,8.30
2018-11-12T05:32:17.172Z,8.25
2018-11-12T05:33:17.242Z,8.28
2018-11-12T05:34:17.269Z,8.21
2018-11-12T05:35:17.318Z,8.20
2018-11-12T05:36:17.361Z,8.26
2018-11-12T05:37:17.397Z,8.20
2018-11-12T05:38:17.573Z,8.26
2018-11-12T05:39:17.489Z,8.28
2018-11-12T05:40:17.531Z,8.32
2018-11-12T05:41:17.580Z,8.32
2018-11-12T05:42:17.636Z,8.30
2018-11-12T05:43:17.692Z,8.30
2018-11-12T05:44:17.731Z,8.30
2018-11-12T05:45:17.760Z,8.29
2018-11-12T05:46:17.807Z,8.35
2018-11-12T05:47:17.852Z,8.35
2018-11-12T05:48:17.929Z,8.29
2018-11-12T05:49:18.005Z,8.26
2018-11-12T05:50:17.988Z,8.35
2018-11-12T05:51:18.059Z,8.29
2018-11-12T05:52:18.076Z,8.26
2018-11-12T05:53:18.151Z,8.22
2018-11-12T05:54:18.172Z,8.20
2018-11-12T05:55:18.208Z,8.22
2018-11-12T05:56:18.259Z,8.20
2018-11-12T05:57:18.298Z,8.28
2018-11-12T05:58:18.368Z,8.21
2018-11-12T05:59:18.387Z,8.22
2018-11-12T06:00:18.482Z,8.22
2018-11-12T06:01:18.498Z,8.25
2018-11-12T06:02:18.527Z,8.29
2018-11-12T06:03:18.596Z,8.28
2018-11-12T06:04:18.640Z,8.32
2018-11-12T06:05:18.699Z,8.35
2018-11-12T06:06:18.704Z,8.30
2018-11-12T06:07:18.756Z,8.28
2018-11-12T06:08:18.817Z,8.22
2018-11-12T06:09:18.858Z,8.20
2018-11-12T06:10:18.920Z,8.22
2018-11-12T06:11:18.933Z,8.28
2018-11-12T06:12:18.975Z,8.32
2018-11-12T06:13:19.021Z,8.20
2018-11-12T06:14:19.082Z,8.11
2018-11-12T06:15:19.143Z,8.10
2018-11-12T06:16:19.152Z,8.12
2018-11-12T06:17:19.199Z,8.12
2018-11-12T06:18:19.263Z,8.15
2018-11-12T06:19:19.290Z,8.10
2018-11-12T06:20:19.350Z,8.14
2018-11-12T06:21:19.383Z,8.11
2018-11-12T06:22:19.451Z,8.11
2018-11-12T06:23:19.470Z,8.11
2018-11-12T06:24:19.524Z,8.17
2018-11-12T06:25:19.559Z,8.11
2018-11-12T06:26:19.626Z,8.17
2018-11-12T06:27:19.646Z,8.03
2018-11-12T06:28:19.692Z,7.99
2018-11-12T06:29:19.758Z,8.07
2018-11-12T06:30:19.790Z,8.02
2018-11-12T06:31:19.889Z,7.84
2018-11-12T06:32:19.898Z,8.00
2018-11-12T06:33:19.918Z,7.82
2018-11-12T06:34:19.964Z,7.78
2018-11-12T06:35:20.006Z,7.77
2018-11-12T06:36:20.067Z,7.74
2018-11-12T06:37:20.138Z,7.60
2018-11-12T06:38:20.143Z,7.63
2018-11-12T06:39:20.187Z,7.56
2018-11-12T06:40:20.230Z,7.67
2018-11-12T06:41:20.280Z,7.56
2018-11-12T06:42:20.366Z,7.52
2018-11-12T06:43:20.486Z,7.47
2018-11-12T06:44:20.433Z,7.50
2018-11-12T06:45:20.457Z,7.52
2018-11-12T06:46:20.502Z,7.52
2018-11-12T06:47:20.677Z,7.44
2018-11-12T06:48:20.608Z,7.55
2018-11-12T06:49:20.635Z,7.49
2018-11-12T06:50:20.680Z,7.55
2018-11-12T06:51:20.749Z,7.53
2018-11-12T06:52:20.794Z,7.66
2018-11-12T06:53:20.885Z,7.55
2018-11-12T06:54:20.860Z,7.55
2018-11-12T06:55:20.904Z,7.63
2018-11-12T06:56:20.945Z,7.60
2018-11-12T06:57:21.019Z,7.42
2018-11-12T06:58:21.673Z,7.47
2018-11-12T06:59:21.081Z,7.38
2018-11-12T07:00:21.135Z,7.47
2018-11-12T07:01:21.168Z,7.49
2018-11-12T07:02:21.219Z,7.45
2018-11-12T07:03:21.288Z,7.49
2018-11-12T07:04:21.303Z,7.49
2018-11-12T07:05:21.355Z,7.49
2018-11-12T07:06:21.410Z,7.47
2018-11-12T07:07:21.437Z,7.40
2018-11-12T07:08:21.504Z,7.53
2018-11-12T07:09:21.527Z,7.59
2018-11-12T07:10:21.578Z,7.60
2018-11-12T07:11:21.617Z,7.59
2018-11-12T07:12:21.667Z,7.69
2018-11-12T07:13:21.784Z,7.75
2018-11-12T07:14:21.751Z,7.84
2018-11-12T07:15:21.793Z,7.87
2018-11-12T07:16:21.838Z,7.90
2018-11-12T07:17:21.883Z,7.96
2018-11-12T07:18:21.947Z,7.93
2018-11-12T07:19:21.993Z,7.94
2018-11-12T07:20:22.019Z,7.97
2018-11-12T07:21:22.061Z,8.03
2018-11-12T07:22:22.106Z,8.00
2018-11-12T07:23:22.149Z,7.92
2018-11-12T07:24:22.233Z,7.92
2018-11-12T07:25:22.358Z,7.96
2018-11-12T07:26:22.286Z,7.94
2018-11-12T07:27:22.343Z,8.08
2018-11-12T07:28:22.374Z,8.10
2018-11-12T07:29:22.450Z,8.12
2018-11-12T07:30:22.469Z,8.14
2018-11-12T07:31:22.533Z,8.14
2018-11-12T07:32:22.556Z,8.28
2018-11-12T07:33:22.595Z,8.47
2018-11-12T07:34:22.661Z,8.65
2018-11-12T07:35:22.692Z,9.38
2018-11-12T07:36:22.739Z,10.03
2018-11-12T07:37:22.825Z,10.59
2018-11-12T07:38:22.845Z,11.09
2018-11-12T07:39:22.872Z,11.50
2018-11-12T07:40:22.931Z,11.87
2018-11-12T07:41:22.965Z,12.08
2018-11-12T07:42:23.032Z,12.23
2018-11-12T07:43:23.062Z,12.41
2018-11-12T07:44:23.112Z,12.42
2018-11-12T07:45:23.219Z,12.64
2018-11-12T07:46:23.198Z,13.02
2018-11-12T07:47:23.255Z,13.24
2018-11-12T07:48:23.289Z,13.55
2018-11-12T07:49:23.338Z,13.83
2018-11-12T07:50:23.411Z,13.84
2018-11-12T07:51:23.490Z,13.96
2018-11-12T07:52:23.477Z,13.96
2018-11-12T07:53:23.546Z,14.09
2018-11-12T07:54:23.594Z,14.21
2018-11-12T07:55:23.627Z,14.37
2018-11-12T07:56:23.775Z,14.43
2018-11-12T07:57:23.740Z,14.29
2018-11-12T07:58:23.765Z,14.43
2018-11-12T07:59:23.814Z,14.32
2018-11-12T08:00:23.872Z,14.38
2018-11-12T08:01:24.016Z,14.49
2018-11-12T08:02:23.966Z,14.54
2018-11-12T08:03:24.053Z,14.60
2018-11-12T08:04:24.097Z,14.75
2018-11-12T08:05:24.118Z,14.13
2018-11-12T08:06:24.157Z,13.63
2018-11-12T08:07:24.203Z,12.87
2018-11-12T08:08:24.268Z,12.30
2018-11-12T08:09:24.366Z,11.59
2018-11-12T08:10:24.355Z,11.21
2018-11-12T08:11:24.396Z,10.94
2018-11-12T08:12:24.457Z,10.80
2018-11-12T08:13:24.504Z,11.50
2018-11-12T08:14:24.623Z,11.44
2018-11-12T08:15:24.605Z,11.24
2018-11-12T08:16:24.649Z,10.80
2018-11-12T08:17:24.771Z,10.53
2018-11-12T08:18:24.770Z,10.51
2018-11-12T08:19:24.792Z,10.28
2018-11-12T08:20:24.846Z,10.21
2018-11-12T08:21:24.889Z,9.99
2018-11-12T08:22:24.934Z,9.93
2018-11-12T08:23:25.012Z,9.79
2018-11-12T08:24:25.162Z,9.81
2018-11-12T08:25:25.110Z,9.96
2018-11-12T08:26:25.155Z,10.14
2018-11-12T08:27:25.205Z,10.66
2018-11-12T08:28:25.224Z,11.17
2018-11-12T08:29:25.302Z,12.11
2018-11-12T08:30:25.379Z,12.12
2018-11-12T08:31:25.387Z,11.72
2018-11-12T08:32:25.416Z,11.50
2018-11-12T08:33:25.460Z,11.56
2018-11-12T08:34:25.512Z,12.30
2018-11-12T08:35:25.583Z,12.05
2018-11-12T08:36:25.661Z,11.75
2018-11-12T08:37:25.662Z,11.52
2018-11-12T08:38:25.704Z,11.32
2018-11-12T08:39:25.770Z,11.07
2018-11-12T08:40:25.858Z,10.99
2018-11-12T08:41:25.887Z,10.96
2018-11-12T08:42:25.897Z,10.86
2018-11-12T08:43:25.966Z,10.77
2018-11-12T08:44:25.989Z,10.71
2018-11-12T08:45:26.038Z,10.66
2018-11-12T08:46:26.094Z,10.63
2018-11-12T08:47:26.135Z,10.63
2018-11-12T08:48:26.248Z,10.62
2018-11-12T08:49:26.317Z,10.55
2018-11-12T08:50:26.289Z,10.58
2018-11-12T08:51:26.322Z,10.66
2018-11-12T08:52:26.371Z,10.92
2018-11-12T08:53:26.438Z,10.84
2018-11-12T08:54:26.467Z,10.84
2018-11-12T08:55:26.535Z,11.11
2018-11-12T08:56:26.562Z,11.17
2018-11-12T08:57:26.635Z,11.14
2018-11-12T08:58:26.657Z,11.10
2018-11-12T08:59:26.802Z,11.10
2018-11-12T09:00:26.759Z,11.07
2018-11-12T09:01:26.803Z,10.99
2018-11-12T09:02:26.868Z,11.11
2018-11-12T09:03:26.897Z,11.07
2018-11-12T09:04:26.941Z,11.10
2018-11-12T09:05:26.990Z,10.98
2018-11-12T09:06:27.181Z,10.92
2018-11-12T09:07:27.138Z,10.83
2018-11-12T09:08:27.131Z,10.76
2018-11-12T09:09:27.179Z,10.76
2018-11-12T09:10:27.229Z,10.63
2018-11-12T09:11:27.299Z,10.71
2018-11-12T09:12:27.355Z,11.13
2018-11-12T09:13:27.481Z,11.85
2018-11-12T09:14:27.427Z,12.34
2018-11-12T09:15:27.483Z,12.78
2018-11-12T09:16:27.531Z,13.02
2018-11-12T09:17:27.570Z,13.36
2018-11-12T09:18:27.645Z,13.70
2018-11-12T09:19:27.734Z,13.87
2018-11-12T09:20:27.815Z,13.80
2018-11-12T09:21:27.783Z,13.38
2018-11-12T09:22:27.807Z,13.07
2018-11-12T09:23:27.890Z,12.82
2018-11-12T09:24:28.057Z,12.56
2018-11-12T09:25:27.955Z,12.39
2018-11-12T09:26:28.009Z,12.26
2018-11-12T09:27:28.050Z,12.24
2018-11-12T09:28:28.126Z,12.09
2018-11-12T09:29:28.180Z,11.90
2018-11-12T09:30:28.200Z,11.87
2018-11-12T09:31:28.455Z,11.89
2018-11-12T09:32:28.303Z,11.68
2018-11-12T09:33:28.397Z,11.56
2018-11-12T09:34:28.393Z,11.77
2018-11-12T09:35:28.451Z,11.94
2018-11-12T09:36:28.529Z,12.06
2018-11-12T09:37:28.618Z,12.63
2018-11-12T09:38:28.680Z,12.95
2018-11-12T09:39:28.681Z,12.79
2018-11-12T09:40:28.703Z,12.93
2018-11-12T09:41:28.818Z,12.62
2018-11-12T09:42:28.813Z,12.34
2018-11-12T09:43:28.862Z,12.26
2018-11-12T09:44:28.883Z,11.96
2018-11-12T09:45:28.937Z,11.80
2018-11-12T09:46:29.012Z,11.67
2018-11-12T09:47:29.027Z,11.61
2018-11-12T09:48:29.111Z,11.72
2018-11-12T09:49:29.128Z,11.72
2018-11-12T09:50:29.181Z,11.57
2018-11-12T09:51:29.226Z,11.59
2018-11-12T09:52:29.289Z,11.57
2018-11-12T09:53:29.355Z,11.52
2018-11-12T09:54:29.473Z,11.25
2018-11-12T09:55:29.498Z,11.44
2018-11-12T09:56:29.482Z,11.68
2018-11-12T09:57:29.570Z,11.96
2018-11-12T09:58:29.586Z,11.94
2018-11-12T09:59:29.657Z,11.94
2018-11-12T10:00:29.968Z,11.90
2018-11-12T10:01:30.287Z,12.01
2018-11-12T10:02:30.353Z,12.26
2018-11-12T10:03:30.682Z,12.79
2018-11-12T10:04:30.757Z,13.29
2018-11-12T10:05:31.031Z,13.44
2018-11-12T10:06:30.970Z,13.67
2018-11-12T10:07:31.709Z,14.19
2018-11-12T10:08:32.096Z,14.53
2018-11-12T10:09:31.839Z,14.93
2018-11-12T10:10:32.413Z,14.88
2018-11-12T10:11:33.860Z,14.64
2018-11-12T10:12:32.942Z,14.46
2018-11-12T10:13:31.790Z,14.07
2018-11-12T10:14:33.048Z,13.98
2018-11-12T10:15:33.680Z,13.84
2018-11-12T10:16:34.590Z,13.69
2018-11-12T10:17:32.685Z,13.51
2018-11-12T10:18:30.559Z,13.54
2018-11-12T10:19:30.634Z,13.52
2018-11-12T10:20:30.648Z,13.43
2018-11-12T10:21:30.710Z,13.56
2018-11-12T10:22:30.748Z,14.16
2018-11-12T10:23:30.793Z,14.53
2018-11-12T10:24:30.845Z,15.02
2018-11-12T10:25:30.904Z,15.30
2018-11-12T10:26:31.025Z,15.49
2018-11-12T10:27:30.996Z,15.57
2018-11-12T10:28:31.041Z,15.85
2018-11-12T10:29:31.094Z,15.68
2018-11-12T10:30:31.141Z,15.41
2018-11-12T10:31:31.221Z,15.03
2018-11-12T10:32:31.242Z,15.33
2018-11-12T10:33:31.296Z,15.63
2018-11-12T10:34:31.348Z,15.78
2018-11-12T10:35:31.423Z,15.93
2018-11-12T10:36:31.468Z,16.03
2018-11-12T10:37:31.655Z,16.09
2018-11-12T10:38:31.549Z,16.09
2018-11-12T10:39:31.608Z,16.11
2018-11-12T10:40:31.653Z,16.03
2018-11-12T10:41:31.700Z,16.04
2018-11-12T10:42:31.784Z,16.03
2018-11-12T10:43:31.815Z,15.85
2018-11-12T10:44:31.865Z,15.76
2018-11-12T10:45:31.933Z,15.66
2018-11-12T10:46:31.983Z,15.54
2018-11-12T10:47:32.034Z,15.45
2018-11-12T10:48:32.161Z,15.36
2018-11-12T10:49:32.115Z,15.12
2018-11-12T10:50:32.163Z,15.06
2018-11-12T10:51:32.213Z,14.99
2018-11-12T10:52:32.264Z,15.09
2018-11-12T10:53:32.343Z,15.27
2018-11-12T10:54:32.454Z,15.24
2018-11-12T10:55:32.673Z,15.35
2018-11-12T10:56:32.466Z,15.19
2018-11-12T10:57:32.528Z,15.28
2018-11-12T10:58:32.636Z,15.27
2018-11-12T10:59:32.638Z,15.19
2018-11-12T11:00:32.670Z,15.06
2018-11-12T11:01:32.717Z,15.19
2018-11-12T11:02:32.798Z,15.36
2018-11-12T11:03:32.823Z,15.43
2018-11-12T11:04:32.867Z,15.33
2018-11-12T11:05:32.943Z,15.15
2018-11-12T11:06:32.989Z,14.95
2018-11-12T11:07:33.028Z,14.98
2018-11-12T11:08:33.073Z,14.84
2018-11-12T11:09:33.121Z,14.91
2018-11-12T11:10:33.198Z,15.05
2018-11-12T11:11:33.222Z,15.06
2018-11-12T11:12:33.261Z,14.99
2018-11-12T11:13:33.313Z,15.01
2018-11-12T11:14:33.397Z,14.94
2018-11-12T11:15:33.588Z,15.01
2018-11-12T11:16:33.478Z,14.80
2018-11-12T11:17:33.526Z,14.69
2018-11-12T11:18:33.567Z,14.69
2018-11-12T11:19:33.678Z,14.69
2018-11-12T11:20:33.658Z,14.62
2018-11-12T11:21:33.756Z,14.65
2018-11-12T11:22:33.759Z,14.53
2018-11-12T11:23:33.809Z,14.50
2018-11-12T11:24:33.859Z,14.62
2018-11-12T11:25:33.987Z,14.69
2018-11-12T11:26:34.095Z,14.61
2018-11-12T11:27:34.008Z,14.64
2018-11-12T11:28:34.053Z,14.69
2018-11-12T11:29:34.108Z,14.67
2018-11-12T11:30:34.176Z,14.64
2018-11-12T11:31:34.206Z,14.64
2018-11-12T11:32:34.253Z,14.65
2018-11-12T11:33:34.449Z,14.62
2018-11-12T11:34:34.357Z,14.65
2018-11-12T11:35:34.409Z,14.54
2018-11-12T11:36:34.447Z,14.27
2018-11-12T11:37:34.516Z,14.43
2018-11-12T11:38:34.578Z,14.34
2018-11-12T11:39:34.596Z,14.28
2018-11-12T11:40:34.692Z,14.38
2018-11-12T11:41:34.696Z,14.46
2018-11-12T11:42:34.750Z,14.62
2018-11-12T11:43:34.817Z,14.67
2018-11-12T11:44:34.846Z,14.87
2018-11-12T11:45:34.893Z,14.91
2018-11-12T11:46:34.950Z,14.99
2018-11-12T11:47:35.141Z,15.02
2018-11-12T11:48:35.058Z,15.08
2018-11-12T11:49:35.088Z,15.17
2018-11-12T11:50:35.187Z,15.11
2018-11-12T11:51:35.191Z,15.11
2018-11-12T11:52:35.243Z,15.08
2018-11-12T11:53:35.312Z,15.02
2018-11-12T11:54:35.392Z,15.05
2018-11-12T11:55:35.382Z,15.09
2018-11-12T11:56:35.499Z,15.13
2018-11-12T11:57:35.559Z,15.11
2018-11-12T11:58:35.565Z,15.09
2018-11-12T11:59:35.605Z,15.12
2018-11-12T12:00:35.626Z,15.13
2018-11-12T12:01:35.689Z,15.12
2018-11-12T12:02:35.725Z,15.24
2018-11-12T12:03:35.776Z,15.17
2018-11-12T12:04:35.845Z,15.19
2018-11-12T12:05:35.902Z,15.09
2018-11-12T12:06:35.931Z,15.05
2018-11-12T12:07:35.982Z,15.05
2018-11-12T12:08:36.066Z,14.99
2018-11-12T12:09:36.071Z,15.02
2018-11-12T12:10:36.159Z,15.03
2018-11-12T12:11:36.176Z,14.88
2018-11-12T12:12:36.218Z,15.01
2018-11-12T12:13:36.264Z,15.01
2018-11-12T12:14:36.323Z,14.98
2018-11-12T12:15:36.385Z,14.94
2018-11-12T12:16:36.431Z,14.90
2018-11-12T12:17:36.501Z,14.81
2018-11-12T12:18:36.571Z,14.87
2018-11-12T12:19:36.558Z,14.86
2018-11-12T12:20:36.647Z,14.65
2018-11-12T12:21:36.661Z,14.50
2018-11-12T12:22:36.707Z,14.34
2018-11-12T12:23:36.758Z,14.24
2018-11-12T12:24:36.916Z,14.19
2018-11-12T12:25:36.901Z,14.16
2018-11-12T12:26:36.902Z,14.13
2018-11-12T12:27:36.969Z,14.17
2018-11-12T12:28:37.003Z,14.19
2018-11-12T12:29:37.059Z,14.24
2018-11-12T12:30:37.115Z,14.42
2018-11-12T12:31:37.192Z,14.42
2018-11-12T12:32:37.260Z,14.37
2018-11-12T12:33:37.270Z,14.46
2018-11-12T12:34:37.319Z,14.50
2018-11-12T12:35:37.392Z,14.42
2018-11-12T12:36:37.463Z,14.35
2018-11-12T12:37:37.482Z,14.28
2018-11-12T12:38:37.495Z,14.24
2018-11-12T12:39:37.539Z,14.20
2018-11-12T12:40:37.594Z,14.32
2018-11-12T12:41:37.668Z,14.32
2018-11-12T12:42:37.709Z,14.24
2018-11-12T12:43:37.738Z,14.19
2018-11-12T12:44:37.810Z,14.31
2018-11-12T12:45:38.000Z,14.25
2018-11-12T12:46:37.900Z,14.37
2018-11-12T12:47:37.933Z,14.35
2018-11-12T12:48:37.980Z,14.20
2018-11-12T12:49:38.117Z,14.14
2018-11-12T12:50:38.077Z,14.24
2018-11-12T12:51:38.176Z,14.07
2018-11-12T12:52:38.180Z,14.16
2018-11-12T12:53:38.231Z,14.19
2018-11-12T12:54:38.271Z,14.19
2018-11-12T12:55:38.451Z,14.20
2018-11-12T12:56:38.407Z,14.19
2018-11-12T12:57:38.414Z,14.19
2018-11-12T12:58:38.466Z,14.37
2018-11-12T12:59:38.560Z,14.37
2018-11-12T13:00:38.564Z,14.37
2018-11-12T13:01:38.685Z,14.24
2018-11-12T13:02:38.692Z,14.27
2018-11-12T13:03:38.714Z,14.21
2018-11-12T13:04:38.799Z,14.17
2018-11-12T13:05:38.853Z,14.17
2018-11-12T13:06:38.898Z,14.43
2018-11-12T13:07:38.941Z,14.27